createdAt,value
2023-05-23T05:06:08.256Z,97464.42
2023-05-23T05:09:18.423Z,97464.26
2023-05-23T05:12:27.071Z,97460.09
2023-05-23T05:15:33.075Z,97457.70
2023-05-23T05:18:40.031Z,97458.10
2023-05-23T05:21:48.373Z,97457.39
2023-05-23T05:24:55.447Z,97458.36
2023-05-23T05:28:02.095Z,97458.03
2023-05-23T05:31:09.321Z,97452.61
2023-05-23T05:34:16.399Z,97451.61
2023-05-23T05:37:23.677Z,97450.68
2023-05-23T05:40:30.799Z,97449.54
2023-05-23T05:43:37.730Z,97452.25
2023-05-23T05:47:02.535Z,97448.66
2023-05-23T05:50:09.437Z,97451.20
2023-05-23T05:53:16.548Z,97450.73
2023-05-23T05:56:23.446Z,97453.22
2023-05-23T05:59:32.421Z,97449.59
2023-05-23T06:02:39.985Z,97448.02
2023-05-23T06:05:47.190Z,97444.94
2023-05-23T06:08:55.354Z,97442.52
2023-05-23T06:12:03.429Z,97441.91
2023-05-23T06:15:24.631Z,97439.70
2023-05-23T06:18:32.781Z,97436.79
2023-05-23T06:21:40.194Z,97431.95
2023-05-23T06:24:45.689Z,97433.66
2023-05-23T06:27:52.816Z,97431.10
2023-05-23T06:30:59.717Z,97426.24
2023-05-23T06:34:06.724Z,97428.86
2023-05-23T06:37:15.996Z,97426.81
2023-05-23T06:40:23.189Z,97420.36
2023-05-23T06:43:30.986Z,97418.27
2023-05-23T06:46:50.872Z,97417.30
2023-05-23T06:49:57.731Z,97415.89
2023-05-23T06:53:04.729Z,97415.82
2023-05-23T06:56:12.006Z,97412.23
2023-05-23T06:59:22.094Z,97410.39
2023-05-23T07:02:29.429Z,97405.19
2023-05-23T07:05:45.147Z,97405.46
2023-05-23T07:09:14.063Z,97404.96
2023-05-23T07:12:26.000Z,97403.77
2023-05-23T07:15:32.918Z,97400.88
2023-05-23T07:18:39.949Z,97399.25
2023-05-23T07:21:46.998Z,97404.73
2023-05-23T07:24:53.894Z,97401.25
2023-05-23T07:28:00.887Z,97400.16
2023-05-23T07:31:08.191Z,97396.22
2023-05-23T07:33:58.614Z,97393.65
2023-05-23T07:37:04.251Z,97390.26
2023-05-23T07:40:11.704Z,97390.11
2023-05-23T07:43:17.353Z,97392.12
2023-05-23T07:46:24.238Z,97388.70
2023-05-23T07:49:33.042Z,97391.30
2023-05-23T07:52:40.008Z,97392.16
2023-05-23T07:55:46.812Z,97393.70
2023-05-23T07:58:54.106Z,97392.59
2023-05-23T08:02:01.219Z,97396.55
2023-05-23T08:05:08.303Z,97388.45
2023-05-23T08:30:39.838Z,97376.27
2023-05-23T08:33:46.990Z,97378.98
2023-05-23T08:36:59.709Z,97377.62
2023-05-23T08:40:07.034Z,97381.02
2023-05-23T08:43:14.291Z,97378.77
2023-05-23T08:46:23.325Z,97378.06
2023-05-23T08:49:30.316Z,97375.33
2023-05-23T08:52:37.559Z,97379.02
2023-05-23T08:55:28.864Z,97377.55
2023-05-23T08:58:36.830Z,97373.02
2023-05-23T09:01:43.771Z,97372.98
2023-05-23T09:04:55.487Z,97376.04
2023-05-23T09:08:18.976Z,97375.91
2023-05-23T09:11:22.017Z,97371.90
2023-05-23T09:14:29.039Z,97373.02
2023-05-23T09:17:36.394Z,97367.90
2023-05-23T09:21:03.314Z,97367.63
2023-05-23T09:24:11.553Z,97367.38
2023-05-23T09:27:48.348Z,97368.32
2023-05-23T09:31:09.081Z,97362.86
2023-05-23T09:34:20.699Z,97359.66
2023-05-23T09:37:36.830Z,97363.00
2023-05-23T09:40:44.652Z,97360.69
2023-05-23T09:43:52.009Z,97356.90
2023-05-23T09:47:53.355Z,97356.45
2023-05-23T09:50:26.570Z,97354.77
2023-05-23T09:53:33.751Z,97348.38
2023-05-23T09:56:52.429Z,97348.89
2023-05-23T10:00:00.752Z,97349.30
2023-05-23T10:03:21.924Z,97342.21
2023-05-23T10:06:42.072Z,97341.27
2023-05-23T10:09:48.105Z,97348.90
2023-05-23T10:13:03.842Z,97342.09
2023-05-23T10:16:15.623Z,97343.75
2023-05-23T10:19:31.771Z,97341.42
2023-05-23T10:22:39.093Z,97340.65
2023-05-23T10:25:46.236Z,97340.00
2023-05-23T10:28:55.547Z,97337.86
2023-05-23T10:32:02.402Z,97337.39
2023-05-23T10:35:15.223Z,97335.57
2023-05-23T10:38:22.105Z,97331.27
2023-05-23T10:41:31.794Z,97330.25
2023-05-23T10:44:44.540Z,97326.91
2023-05-23T10:47:51.635Z,97328.55
2023-05-23T10:51:21.830Z,97330.47
2023-05-23T10:54:45.093Z,97328.52
2023-05-23T10:57:52.119Z,97329.38
2023-05-23T11:00:52.006Z,97330.83
2023-05-23T11:04:06.215Z,97325.92
2023-05-23T11:07:13.194Z,97324.48
2023-05-23T11:10:22.869Z,97319.63
2023-05-23T11:13:30.010Z,97317.41
2023-05-23T11:16:49.213Z,97312.70
2023-05-23T11:19:56.415Z,97305.96
2023-05-23T11:23:03.275Z,97302.50
2023-05-23T11:26:09.428Z,97301.85
2023-05-23T11:29:16.636Z,97303.86
2023-05-23T11:32:29.640Z,97296.89
2023-05-23T11:35:36.744Z,97296.46
2023-05-23T11:38:43.873Z,97288.58
2023-05-23T11:41:51.790Z,97288.90
2023-05-23T11:44:58.908Z,97284.47
2023-05-23T11:48:06.170Z,97280.55
2023-05-23T11:51:13.661Z,97278.30
2023-05-23T11:54:24.981Z,97277.32
2023-05-23T11:57:32.255Z,97283.80
2023-05-23T12:00:39.369Z,97283.27
2023-05-23T12:03:47.016Z,97279.10
2023-05-23T12:06:54.055Z,97280.92
2023-05-23T12:10:05.542Z,97280.15
2023-05-23T12:13:11.366Z,97277.35
2023-05-23T12:16:16.809Z,97282.14
2023-05-23T12:19:23.880Z,97279.98
2023-05-23T12:22:30.895Z,97277.07
2023-05-23T12:25:38.077Z,97273.87
2023-05-23T12:28:54.179Z,97274.68
2023-05-23T12:32:01.196Z,97275.59
2023-05-23T12:34:57.458Z,97269.71
2023-05-23T12:38:04.114Z,97266.59
2023-05-23T12:41:32.642Z,97267.98
2023-05-23T12:44:42.210Z,97265.44
2023-05-23T12:48:16.335Z,97264.70
2023-05-23T12:51:23.412Z,97268.10
2023-05-23T12:54:35.157Z,97268.20
2023-05-23T12:57:43.114Z,97267.63
2023-05-23T13:00:54.717Z,97268.06
2023-05-23T13:04:02.218Z,97266.22
2023-05-23T13:07:14.565Z,97266.04
2023-05-23T13:10:41.443Z,97269.70
2023-05-23T13:13:56.298Z,97263.93
2023-05-23T13:17:30.081Z,97267.33
2023-05-23T13:20:47.400Z,97270.34
2023-05-23T13:24:04.134Z,97290.80
2023-05-23T13:27:15.288Z,97308.64
2023-05-23T13:30:22.305Z,97303.42
2023-05-23T13:33:29.425Z,97308.61
2023-05-23T13:36:36.343Z,97318.30
2023-05-23T13:39:43.428Z,97314.28
2023-05-23T13:42:50.432Z,97317.23
2023-05-23T13:45:57.989Z,97322.24
2023-05-23T13:49:05.736Z,97316.48
2023-05-23T13:52:32.757Z,97315.92
2023-05-23T13:55:39.742Z,97315.04
2023-05-23T13:58:49.093Z,97315.91
2023-05-23T14:01:56.267Z,97319.66
2023-05-23T14:05:03.770Z,97319.27
2023-05-23T14:08:11.126Z,97325.48
2023-05-23T14:11:18.583Z,97328.92
2023-05-23T14:14:28.003Z,97328.77
2023-05-23T14:17:37.652Z,97329.18
2023-05-23T14:20:45.852Z,97328.09
2023-05-23T14:23:54.888Z,97323.13
2023-05-23T14:27:01.807Z,97325.17
2023-05-23T14:30:09.549Z,97320.15
2023-05-23T14:33:26.152Z,97320.35
2023-05-23T14:36:33.370Z,97320.55
2023-05-23T14:39:30.326Z,97317.89
2023-05-23T14:42:29.661Z,97315.67
2023-05-23T14:45:41.310Z,97314.30
2023-05-23T14:49:08.665Z,97308.40
2023-05-23T14:52:17.307Z,97304.67
2023-05-23T14:55:24.473Z,97296.65
2023-05-23T14:58:33.532Z,97287.98
2023-05-23T15:01:41.209Z,97284.84
2023-05-23T15:04:48.977Z,97284.36
2023-05-23T15:08:16.898Z,97285.38
2023-05-23T15:11:26.037Z,97286.27
2023-05-23T15:14:35.099Z,97290.48
2023-05-23T15:17:42.421Z,97288.16
2023-05-23T15:20:50.487Z,97293.23
2023-05-23T15:23:57.836Z,97297.67
2023-05-23T15:27:19.466Z,97303.77
2023-05-23T15:30:29.053Z,97299.11
2023-05-23T15:33:55.770Z,97300.16
2023-05-23T15:37:12.193Z,97302.65
2023-05-23T15:40:27.228Z,97307.01
2023-05-23T15:43:34.121Z,97310.59
2023-05-23T15:46:39.953Z,97313.69
2023-05-23T15:49:47.808Z,97312.08
2023-05-23T15:52:50.396Z,97305.57
2023-05-23T15:56:33.932Z,97299.77
2023-05-23T15:59:42.763Z,97289.59
2023-05-23T16:02:50.565Z,97286.04
2023-05-23T16:05:51.256Z,97281.92
2023-05-23T16:08:58.369Z,97281.11
2023-05-23T16:12:06.619Z,97282.92
2023-05-23T16:15:17.602Z,97282.55
2023-05-23T16:18:24.201Z,97283.52
2023-05-23T16:21:31.286Z,97285.75
2023-05-23T16:24:38.057Z,97285.27
2023-05-23T16:27:45.229Z,97282.96
2023-05-23T16:30:51.137Z,97285.58
2023-05-23T16:33:58.999Z,97281.23
2023-05-23T16:37:06.884Z,97278.85
2023-05-23T16:40:14.062Z,97276.77
2023-05-23T16:43:21.181Z,97274.16
2023-05-23T16:46:28.481Z,97272.70
2023-05-23T16:49:35.786Z,97272.64
2023-05-23T16:52:43.156Z,97271.08
2023-05-23T16:55:50.428Z,97276.10
2023-05-23T16:58:57.584Z,97280.27
2023-05-23T17:02:04.572Z,97280.85
2023-05-23T17:05:11.818Z,97278.64
2023-05-23T17:08:20.060Z,97285.72
2023-05-23T17:11:27.661Z,97289.81
2023-05-23T17:14:34.659Z,97294.31
2023-05-23T17:17:41.965Z,97292.58
2023-05-23T17:20:49.478Z,97297.75
2023-05-23T17:23:56.755Z,97302.27
2023-05-23T17:30:35.455Z,97312.29
2023-05-23T17:33:42.670Z,97321.48
2023-05-23T17:36:50.350Z,97321.50
2023-05-23T17:39:57.970Z,97323.88
2023-05-23T17:43:05.683Z,97324.91
2023-05-23T17:46:12.726Z,97326.83
2023-05-23T17:49:19.461Z,97323.89
2023-05-23T17:52:44.946Z,97326.98
2023-05-23T17:55:51.839Z,97328.30
2023-05-23T17:58:59.170Z,97326.20
2023-05-23T18:01:56.540Z,97325.77
2023-05-23T18:08:26.712Z,97329.27
2023-05-23T18:11:34.657Z,97330.25
2023-05-23T18:14:43.451Z,97330.27
2023-05-23T18:18:10.886Z,97324.98
2023-05-23T18:21:18.465Z,97323.07
2023-05-23T18:24:26.651Z,97323.48
2023-05-23T18:27:33.782Z,97326.35
2023-05-23T18:30:40.938Z,97330.00
2023-05-23T18:33:48.836Z,97332.76
2023-05-23T18:37:17.621Z,97339.11
2023-05-23T18:40:25.745Z,97346.12
2023-05-23T18:43:41.656Z,97351.40
2023-05-23T18:50:30.342Z,97359.16
2023-05-23T18:53:57.631Z,97362.11
2023-05-23T18:57:06.427Z,97363.70
2023-05-23T19:00:13.683Z,97369.79
2023-05-23T19:03:21.787Z,97370.80
2023-05-23T19:06:33.609Z,97372.67
2023-05-23T19:09:34.017Z,97375.17
2023-05-23T19:12:41.365Z,97377.31
2023-05-23T19:16:04.328Z,97379.02
2023-05-23T19:19:11.662Z,97379.45
2023-05-23T19:22:24.093Z,97374.70
2023-05-23T19:25:37.951Z,97372.90
2023-05-23T19:29:12.535Z,97376.09
2023-05-23T19:32:40.310Z,97381.55
2023-05-23T19:35:48.522Z,97381.23
2023-05-23T19:38:56.724Z,97381.65
2023-05-23T19:42:08.044Z,97382.95
2023-05-23T19:45:57.259Z,97379.89
2023-05-23T19:49:05.483Z,97384.04
2023-05-23T19:52:14.555Z,97388.08
2023-05-23T19:55:22.649Z,97389.62
2023-05-23T19:58:54.182Z,97388.65
2023-05-23T20:22:04.476Z,97403.18
2023-05-23T20:25:11.687Z,97403.52
2023-05-23T20:28:20.584Z,97410.75
2023-05-23T20:31:37.015Z,97410.33
2023-05-23T20:34:52.873Z,97411.87
2023-05-23T20:38:02.167Z,97411.15
2023-05-23T20:41:11.224Z,97414.17
2023-05-23T20:44:18.896Z,97417.93
2023-05-23T20:47:26.489Z,97423.01
2023-05-23T20:50:33.594Z,97421.44
2023-05-23T20:53:40.634Z,97424.20
2023-05-23T20:57:08.188Z,97428.83
2023-05-23T21:00:15.324Z,97434.02
2023-05-23T21:03:25.334Z,97431.79
2023-05-23T21:06:35.794Z,97427.37
2023-05-23T21:09:46.489Z,97432.12
2023-05-23T21:12:56.009Z,97430.41
2023-05-23T21:16:06.778Z,97429.11
2023-05-23T21:19:19.746Z,97433.66
2023-05-23T21:22:37.446Z,97434.42
2023-05-23T21:25:55.149Z,97433.38
2023-05-23T21:29:02.875Z,97436.95
2023-05-23T21:32:12.358Z,97438.27
2023-05-23T21:35:20.835Z,97438.99
2023-05-23T21:38:29.871Z,97443.52
2023-05-23T21:41:43.254Z,97442.98
2023-05-23T21:44:50.241Z,97442.52
2023-05-23T21:48:00.475Z,97444.56
2023-05-23T21:51:12.076Z,97447.35
2023-05-23T21:54:19.409Z,97448.17
2023-05-23T21:57:29.718Z,97448.02
2023-05-23T22:01:05.467Z,97448.57
2023-05-23T22:04:14.273Z,97448.70
2023-05-23T22:07:22.058Z,97448.27
2023-05-23T22:10:30.307Z,97450.34
2023-05-23T22:13:37.283Z,97450.72
2023-05-23T22:16:45.113Z,97452.52
2023-05-23T22:20:13.778Z,97452.86
2023-05-23T22:23:21.905Z,97453.32
2023-05-23T22:26:31.934Z,97454.56
2023-05-23T22:29:43.941Z,97452.98
2023-05-23T22:32:52.087Z,97453.48
2023-05-23T22:36:01.493Z,97453.83
2023-05-23T22:39:08.937Z,97455.01
2023-05-23T22:42:20.244Z,97455.33
2023-05-23T22:45:27.136Z,97455.50
2023-05-23T22:48:36.200Z,97455.05
2023-05-23T22:51:44.772Z,97453.64
2023-05-23T22:54:56.032Z,97453.36
2023-05-23T22:58:06.356Z,97448.23
2023-05-23T23:01:17.362Z,97445.08
2023-05-23T23:04:26.430Z,97439.83
2023-05-23T23:07:33.478Z,97439.81
2023-05-23T23:11:23.005Z,97442.46
2023-05-23T23:14:30.671Z,97441.50
2023-05-23T23:17:48.693Z,97442.20
2023-05-23T23:21:03.852Z,97439.98
2023-05-23T23:24:12.020Z,97438.23
2023-05-23T23:27:39.152Z,97438.40
2023-05-23T23:30:45.892Z,97436.94
2023-05-23T23:33:53.269Z,97432.17
2023-05-23T23:37:00.523Z,97432.02
2023-05-23T23:40:07.670Z,97434.23
2023-05-23T23:43:23.215Z,97428.27
2023-05-23T23:46:32.823Z,97432.06
2023-05-23T23:49:41.117Z,97434.23
2023-05-23T23:52:49.298Z,97439.14
2023-05-23T23:55:56.188Z,97433.33
2023-05-23T23:59:04.556Z,97432.11
